Time,TemperatureF,DewpointF,PressureIn,WindDirection,WindDirectionDegrees,WindSpeedMPH,WindSpeedGustMPH,Humidity,HourlyPrecipIn,Conditions,Clouds,dailyrainin,SoftwareType,DateUTC
2013-05-31 00:27:00,52.4,48.3,30.01,SW,217,1.0,2.0,86,0.00,,---,0.00,VWS V14.01,2013-05-31 08:27:00,
2013-05-31 00:57:00,52.7,48.6,30.01,SSE,165,0.0,3.0,86,0.00,,---,0.00,VWS V14.01,2013-05-31 08:57:00,
2013-05-31 01:27:00,52.3,48.9,30.01,South,174,1.0,1.0,88,0.00,,---,0.00,VWS V14.01,2013-05-31 09:27:00,
2013-05-31 01:57:00,52.4,49.0,30.02,South,188,1.0,3.0,88,0.00,,---,0.00,VWS V14.01,2013-05-31 09:57:00,
2013-05-31 02:27:00,51.9,48.2,30.02,SSE,162,0.0,2.0,87,0.00,,---,0.00,VWS V14.01,2013-05-31 10:27:00,
2013-05-31 02:57:00,51.2,48.7,30.03,SSE,160,0.0,0.0,91,0.00,,---,0.00,VWS V14.01,2013-05-31 10:57:00,
2013-05-31 03:27:00,51.1,48.9,30.03,SSW,200,0.0,1.0,92,0.02,,---,0.02,VWS V14.01,2013-05-31 11:27:00,
2013-05-31 03:57:00,50.1,47.9,30.05,SSE,156,0.0,2.0,92,0.03,,---,0.03,VWS V14.01,2013-05-31 11:57:00,
2013-05-31 04:27:00,49.7,48.0,30.05,South,185,0.0,1.0,94,0.04,,---,0.04,VWS V14.01,2013-05-31 12:27:00,
2013-05-31 04:57:00,49.3,47.9,30.05,ENE,68,0.0,2.0,95,0.04,,---,0.06,VWS V14.01,2013-05-31 12:57:00,
2013-05-31 05:27:00,49.3,48.2,30.05,SW,226,0.0,3.0,96,0.03,,---,0.06,VWS V14.01,2013-05-31 13:27:00,
2013-05-31 05:57:00,49.1,48.0,30.06,East,101,1.0,3.0,96,0.03,,---,0.07,VWS V14.01,2013-05-31 13:57:00,
2013-05-31 06:27:00,48.8,47.7,30.07,SSW,198,0.0,5.0,96,0.01,,---,0.07,VWS V14.01,2013-05-31 14:27:00,
2013-05-31 06:57:00,48.8,47.7,30.07,NW,308,1.0,6.0,96,0.01,,---,0.07,VWS V14.01,2013-05-31 14:57:00,
2013-05-31 07:27:00,48.6,47.8,30.08,WSW,252,0.0,6.0,97,0.00,,---,0.07,VWS V14.01,2013-05-31 15:27:00,
2013-05-31 07:57:00,48.6,47.8,30.08,South,191,0.0,6.0,97,0.00,,---,0.07,VWS V14.01,2013-05-31 15:57:00,
2013-05-31 08:27:00,48.7,47.9,30.09,SW,225,0.0,2.0,97,0.00,,---,0.07,VWS V14.01,2013-05-31 16:27:00,
2013-05-31 08:57:00,48.5,47.7,30.10,ESE,117,0.0,3.0,97,0.00,,---,0.07,VWS V14.01,2013-05-31 16:57:00,
2013-05-31 09:27:00,48.6,47.8,30.10,WSW,241,0.0,3.0,97,0.00,,---,0.07,VWS V14.01,2013-05-31 17:27:00,
2013-05-31 09:57:00,48.5,47.4,30.11,NE,40,1.0,4.0,96,0.00,,---,0.07,VWS V14.01,2013-05-31 17:57:00,
2013-05-31 10:27:00,48.5,47.4,30.12,East,96,0.0,2.0,96,0.00,,---,0.07,VWS V14.01,2013-05-31 18:27:00,
2013-05-31 10:57:00,48.7,47.6,30.12,WSW,248,0.0,2.0,96,0.00,,---,0.07,VWS V14.01,2013-05-31 18:57:00,
2013-05-31 11:27:00,48.8,47.7,30.12,SSW,210,3.0,3.0,96,0.02,,---,0.09,VWS V14.01,2013-05-31 19:27:00,
2013-05-31 11:57:00,49.0,47.9,30.12,NNW,337,0.0,6.0,96,0.03,,---,0.10,VWS V14.01,2013-05-31 19:57:00,
2013-05-31 12:27:00,48.7,47.6,30.13,SW,221,1.0,5.0,96,0.04,,---,0.11,VWS V14.01,2013-05-31 20:27:00,
2013-05-31 12:57:00,48.5,47.4,30.13,SSE,168,0.0,6.0,96,0.03,,---,0.12,VWS V14.01,2013-05-31 20:57:00,
2013-05-31 13:27:00,48.8,47.7,30.13,NE,37,0.0,2.0,96,0.04,,---,0.14,VWS V14.01,2013-05-31 21:27:00,
2013-05-31 13:57:00,49.1,48.0,30.13,SE,143,1.0,5.0,96,0.05,,---,0.16,VWS V14.01,2013-05-31 21:57:00,
2013-05-31 14:27:00,49.0,47.9,30.13,West,262,0.0,7.0,96,0.06,,---,0.18,VWS V14.01,2013-05-31 22:27:00,
2013-05-31 14:57:00,48.5,47.4,30.14,SE,143,1.0,13.0,96,0.06,,---,0.20,VWS V14.01,2013-05-31 22:57:00,
2013-05-31 15:27:00,49.0,47.9,30.14,SSW,200,1.0,5.0,96,0.07,,---,0.23,VWS V14.01,2013-05-31 23:27:00,
2013-05-31 15:57:00,48.3,47.2,30.14,SW,232,1.0,11.0,96,0.10,,---,0.28,VWS V14.01,2013-05-31 23:57:00,
2013-05-31 16:27:00,48.2,47.1,30.15,South,188,2.0,11.0,96,0.11,,---,0.31,VWS V14.01,2013-06-01 00:27:00,
2013-05-31 16:57:00,47.9,46.8,30.15,WSW,252,5.0,15.0,96,0.08,,---,0.31,VWS V14.01,2013-06-01 00:57:00,
2013-05-31 17:27:00,47.9,46.8,30.15,West,271,3.0,10.0,96,0.03,,---,0.31,VWS V14.01,2013-06-01 01:27:00,
2013-05-31 17:57:00,47.9,46.5,30.16,SSW,211,3.0,6.0,95,0.00,,---,0.31,VWS V14.01,2013-06-01 01:57:00,
2013-05-31 18:27:00,47.5,46.1,30.15,WSW,255,1.0,9.0,95,0.00,,---,0.31,VWS V14.01,2013-06-01 02:27:00,
2013-05-31 18:57:00,47.2,45.6,30.16,SE,131,4.0,6.0,94,0.00,,---,0.31,VWS V14.01,2013-06-01 02:57:00,
2013-05-31 19:27:00,46.9,45.3,30.16,SSE,167,2.0,12.0,94,0.00,,---,0.31,VWS V14.01,2013-06-01 03:27:00,
2013-05-31 19:57:00,46.8,45.5,30.16,SSE,151,5.0,15.0,95,0.00,,---,0.31,VWS V14.01,2013-06-01 03:57:00,
2013-05-31 20:27:00,46.6,45.2,30.16,SW,231,13.0,16.0,95,0.00,,---,0.31,VWS V14.01,2013-06-01 04:27:00,
2013-05-31 20:57:00,46.1,44.8,30.17,WSW,239,2.0,13.0,95,0.00,,---,0.31,VWS V14.01,2013-06-01 04:57:00,
2013-05-31 21:27:00,46.0,44.9,30.16,SE,141,7.0,11.0,96,0.00,,---,0.31,VWS V14.01,2013-06-01 05:27:00,
2013-05-31 21:57:00,45.7,44.6,30.17,ENE,64,2.0,12.0,96,0.00,,---,0.31,VWS V14.01,2013-06-01 05:57:00,
2013-05-31 22:27:00,45.5,44.4,30.17,NNW,330,2.0,11.0,96,0.00,,---,0.31,VWS V14.01,2013-06-01 06:27:00,
2013-05-31 22:57:00,45.6,44.5,30.17,West,260,2.0,13.0,96,0.00,,---,0.31,VWS V14.01,2013-06-01 06:57:00,
2013-05-31 23:27:00,44.8,43.5,30.17,SE,128,1.0,14.0,95,0.00,,---,0.31,VWS V14.01,2013-06-01 07:27:00,
2013-05-31 23:30:00,44.8,43.5,30.17,SE,128,1.0,14.0,95,0.00,,---,0.31,VWS V14.01,2013-06-01 07:30:00,